sensor_id;sensor_type;location;lat;lon;timestamp;P1;durP1;ratioP1;P2;durP2;ratioP2
12768;SDS011;6448;48.916;8.990;2023-09-08T00:00:12;3.30;;;3.00;;
12768;SDS011;6448;48.916;8.990;2023-09-08T00:01:13;3.38;;;3.08;;
12768;SDS011;6448;48.916;8.990;2023-09-08T00:02:15;3.38;;;3.15;;
12768;SDS011;6448;48.916;8.990;2023-09-08T00:03:16;3.00;;;2.80;;
12768;SDS011;6448;48.916;8.990;2023-09-08T00:04:19;3.70;;;3.40;;
12768;SDS011;6448;48.916;8.990;2023-09-08T00:05:21;3.30;;;3.10;;
12768;SDS011;6448;48.916;8.990;2023-09-08T00:06:22;3.20;;;3.00;;
12768;SDS011;6448;48.916;8.990;2023-09-08T00:07:23;3.35;;;3.05;;
12768;SDS011;6448;48.916;8.990;2023-09-08T00:08:25;3.33;;;3.10;;
12768;SDS011;6448;48.916;8.990;2023-09-08T00:09:26;3.57;;;3.27;;
12768;SDS011;6448;48.916;8.990;2023-09-08T00:10:27;2.97;;;2.78;;
12768;SDS011;6448;48.916;8.990;2023-09-08T00:11:28;3.25;;;3.05;;
12768;SDS011;6448;48.916;8.990;2023-09-08T00:12:30;3.28;;;3.05;;
12768;SDS011;6448;48.916;8.990;2023-09-08T00:13:31;3.28;;;3.08;;
12768;SDS011;6448;48.916;8.990;2023-09-08T00:14:32;3.60;;;3.30;;
12768;SDS011;6448;48.916;8.990;2023-09-08T00:15:33;3.55;;;3.28;;
12768;SDS011;6448;48.916;8.990;2023-09-08T00:16:35;3.00;;;2.80;;
12768;SDS011;6448;48.916;8.990;2023-09-08T00:17:37;3.10;;;2.90;;
12768;SDS011;6448;48.916;8.990;2023-09-08T00:18:39;3.50;;;3.20;;
12768;SDS011;6448;48.916;8.990;2023-09-08T00:19:41;3.67;;;3.37;;
12768;SDS011;6448;48.916;8.990;2023-09-08T00:20:43;3.58;;;3.28;;
12768;SDS011;6448;48.916;8.990;2023-09-08T00:21:43;3.20;;;3.00;;
12768;SDS011;6448;48.916;8.990;2023-09-08T00:22:45;3.40;;;3.10;;
12768;SDS011;6448;48.916;8.990;2023-09-08T00:23:46;3.22;;;3.00;;
12768;SDS011;6448;48.916;8.990;2023-09-08T00:24:47;3.28;;;3.08;;
12768;SDS011;6448;48.916;8.990;2023-09-08T00:25:48;3.25;;;3.00;;
12768;SDS011;6448;48.916;8.990;2023-09-08T00:26:50;3.05;;;2.85;;
12768;SDS011;6448;48.916;8.990;2023-09-08T00:27:51;3.10;;;2.90;;
12768;SDS011;6448;48.916;8.990;2023-09-08T00:28:53;3.22;;;3.03;;
12768;SDS011;6448;48.916;8.990;2023-09-08T00:29:54;3.42;;;3.13;;
12768;SDS011;6448;48.916;8.990;2023-09-08T00:30:55;3.30;;;3.10;;
12768;SDS011;6448;48.916;8.990;2023-09-08T00:31:56;3.35;;;3.15;;
12768;SDS011;6448;48.916;8.990;2023-09-08T00:32:57;3.60;;;3.30;;
12768;SDS011;6448;48.916;8.990;2023-09-08T00:33:58;3.38;;;3.17;;
12768;SDS011;6448;48.916;8.990;2023-09-08T00:35:01;3.00;;;2.80;;
12768;SDS011;6448;48.916;8.990;2023-09-08T00:36:03;3.58;;;3.28;;
12768;SDS011;6448;48.916;8.990;2023-09-08T00:37:04;3.45;;;3.15;;
12768;SDS011;6448;48.916;8.990;2023-09-08T00:38:07;3.38;;;3.17;;
12768;SDS011;6448;48.916;8.990;2023-09-08T00:39:08;3.67;;;3.38;;
12768;SDS011;6448;48.916;8.990;2023-09-08T00:40:10;3.50;;;3.30;;
12768;SDS011;6448;48.916;8.990;2023-09-08T00:41:11;3.70;;;3.40;;
12768;SDS011;6448;48.916;8.990;2023-09-08T00:42:13;3.45;;;3.17;;
12768;SDS011;6448;48.916;8.990;2023-09-08T00:43:14;3.63;;;3.33;;
12768;SDS011;6448;48.916;8.990;2023-09-08T00:44:16;3.80;;;3.50;;
12768;SDS011;6448;48.916;8.990;2023-09-08T00:45:17;3.60;;;3.30;;
12768;SDS011;6448;48.916;8.990;2023-09-08T00:46:18;3.60;;;3.30;;
12768;SDS011;6448;48.916;8.990;2023-09-08T00:47:19;3.40;;;3.20;;
12768;SDS011;6448;48.916;8.990;2023-09-08T00:48:21;3.38;;;3.17;;
12768;SDS011;6448;48.916;8.990;2023-09-08T00:49:23;3.42;;;3.22;;
12768;SDS011;6448;48.916;8.990;2023-09-08T00:50:26;3.58;;;3.28;;
12768;SDS011;6448;48.916;8.990;2023-09-08T00:51:27;3.78;;;3.40;;
12768;SDS011;6448;48.916;8.990;2023-09-08T00:52:29;3.43;;;3.20;;
12768;SDS011;6448;48.916;8.990;2023-09-08T00:53:32;3.50;;;3.20;;
12768;SDS011;6448;48.916;8.990;2023-09-08T00:54:33;3.50;;;3.30;;
12768;SDS011;6448;48.916;8.990;2023-09-08T00:55:35;3.45;;;3.15;;
12768;SDS011;6448;48.916;8.990;2023-09-08T00:56:37;3.70;;;3.40;;
12768;SDS011;6448;48.916;8.990;2023-09-08T00:57:38;3.75;;;3.45;;
12768;SDS011;6448;48.916;8.990;2023-09-08T00:58:40;3.70;;;3.40;;
12768;SDS011;6448;48.916;8.990;2023-09-08T00:59:41;3.70;;;3.40;;
12768;SDS011;6448;48.916;8.990;2023-09-08T01:00:44;3.65;;;3.35;;
12768;SDS011;6448;48.916;8.990;2023-09-08T01:01:45;3.70;;;3.40;;
12768;SDS011;6448;48.916;8.990;2023-09-08T01:02:47;3.60;;;3.30;;
12768;SDS011;6448;48.916;8.990;2023-09-08T01:03:48;4.00;;;3.70;;
12768;SDS011;6448;48.916;8.990;2023-09-08T01:04:50;3.90;;;3.60;;
12768;SDS011;6448;48.916;8.990;2023-09-08T01:05:52;4.00;;;3.70;;
12768;SDS011;6448;48.916;8.990;2023-09-08T01:06:54;3.90;;;3.60;;
12768;SDS011;6448;48.916;8.990;2023-09-08T01:07:56;3.80;;;3.50;;
12768;SDS011;6448;48.916;8.990;2023-09-08T01:09:01;3.47;;;3.28;;
12768;SDS011;6448;48.916;8.990;2023-09-08T01:10:02;3.40;;;3.20;;
12768;SDS011;6448;48.916;8.990;2023-09-08T01:11:06;3.97;;;3.67;;
12768;SDS011;6448;48.916;8.990;2023-09-08T01:12:07;3.70;;;3.40;;
12768;SDS011;6448;48.916;8.990;2023-09-08T01:13:09;3.72;;;3.42;;
12768;SDS011;6448;48.916;8.990;2023-09-08T01:14:11;3.78;;;3.47;;
12768;SDS011;6448;48.916;8.990;2023-09-08T01:15:13;3.55;;;3.30;;
12768;SDS011;6448;48.916;8.990;2023-09-08T01:16:14;3.72;;;3.42;;
12768;SDS011;6448;48.916;8.990;2023-09-08T01:17:16;3.80;;;3.50;;
12768;SDS011;6448;48.916;8.990;2023-09-08T01:18:16;3.88;;;3.55;;
12768;SDS011;6448;48.916;8.990;2023-09-08T01:19:19;3.50;;;3.30;;
12768;SDS011;6448;48.916;8.990;2023-09-08T01:20:22;3.88;;;3.58;;
12768;SDS011;6448;48.916;8.990;2023-09-08T01:21:34;3.60;;;3.30;;
12768;SDS011;6448;48.916;8.990;2023-09-08T01:23:11;3.67;;;3.38;;
12768;SDS011;6448;48.916;8.990;2023-09-08T01:24:32;4.00;;;3.70;;
12768;SDS011;6448;48.916;8.990;2023-09-08T01:25:54;3.50;;;3.20;;
12768;SDS011;6448;48.916;8.990;2023-09-08T01:26:58;3.80;;;3.50;;
12768;SDS011;6448;48.916;8.990;2023-09-08T01:28:00;3.72;;;3.45;;
12768;SDS011;6448;48.916;8.990;2023-09-08T01:29:03;3.70;;;3.40;;
12768;SDS011;6448;48.916;8.990;2023-09-08T01:30:07;3.65;;;3.40;;
12768;SDS011;6448;48.916;8.990;2023-09-08T01:31:09;3.70;;;3.42;;
12768;SDS011;6448;48.916;8.990;2023-09-08T01:32:10;3.78;;;3.47;;
12768;SDS011;6448;48.916;8.990;2023-09-08T01:33:12;4.00;;;3.70;;
12768;SDS011;6448;48.916;8.990;2023-09-08T01:34:13;3.80;;;3.50;;
12768;SDS011;6448;48.916;8.990;2023-09-08T01:35:15;3.42;;;3.22;;
12768;SDS011;6448;48.916;8.990;2023-09-08T01:36:16;3.60;;;3.30;;
12768;SDS011;6448;48.916;8.990;2023-09-08T01:37:18;3.75;;;3.45;;
12768;SDS011;6448;48.916;8.990;2023-09-08T01:38:23;3.55;;;3.28;;
12768;SDS011;6448;48.916;8.990;2023-09-08T01:39:26;3.22;;;3.03;;
12768;SDS011;6448;48.916;8.990;2023-09-08T01:40:27;3.58;;;3.28;;
12768;SDS011;6448;48.916;8.990;2023-09-08T01:41:30;3.42;;;3.22;;
12768;SDS011;6448;48.916;8.990;2023-09-08T01:42:35;3.70;;;3.40;;
12768;SDS011;6448;48.916;8.990;2023-09-08T01:43:36;3.60;;;3.30;;
12768;SDS011;6448;48.916;8.990;2023-09-08T01:44:38;3.65;;;3.35;;
12768;SDS011;6448;48.916;8.990;2023-09-08T01:45:39;3.33;;;3.13;;
12768;SDS011;6448;48.916;8.990;2023-09-08T01:46:40;3.47;;;3.17;;
12768;SDS011;6448;48.916;8.990;2023-09-08T01:47:41;3.20;;;3.00;;
12768;SDS011;6448;48.916;8.990;2023-09-08T01:48:42;3.67;;;3.38;;
12768;SDS011;6448;48.916;8.990;2023-09-08T01:49:44;3.70;;;3.40;;
12768;SDS011;6448;48.916;8.990;2023-09-08T01:50:46;3.42;;;3.22;;
12768;SDS011;6448;48.916;8.990;2023-09-08T01:51:48;3.53;;;3.22;;
12768;SDS011;6448;48.916;8.990;2023-09-08T01:52:49;3.72;;;3.47;;
12768;SDS011;6448;48.916;8.990;2023-09-08T01:53:50;3.45;;;3.25;;
12768;SDS011;6448;48.916;8.990;2023-09-08T01:54:51;3.53;;;3.30;;
12768;SDS011;6448;48.916;8.990;2023-09-08T01:55:53;3.47;;;3.28;;
12768;SDS011;6448;48.916;8.990;2023-09-08T01:56:55;3.85;;;3.55;;
12768;SDS011;6448;48.916;8.990;2023-09-08T01:57:56;4.18;;;3.78;;
12768;SDS011;6448;48.916;8.990;2023-09-08T01:58:57;3.88;;;3.58;;
12768;SDS011;6448;48.916;8.990;2023-09-08T02:00:00;3.30;;;3.10;;
12768;SDS011;6448;48.916;8.990;2023-09-08T02:01:01;3.83;;;3.53;;
12768;SDS011;6448;48.916;8.990;2023-09-08T02:02:05;3.47;;;3.28;;
12768;SDS011;6448;48.916;8.990;2023-09-08T02:03:06;3.60;;;3.40;;
12768;SDS011;6448;48.916;8.990;2023-09-08T02:04:08;3.60;;;3.30;;
12768;SDS011;6448;48.916;8.990;2023-09-08T02:05:09;3.45;;;3.15;;
12768;SDS011;6448;48.916;8.990;2023-09-08T02:06:11;3.60;;;3.30;;
12768;SDS011;6448;48.916;8.990;2023-09-08T02:07:12;3.57;;;3.27;;
12768;SDS011;6448;48.916;8.990;2023-09-08T02:08:13;3.70;;;3.40;;
12768;SDS011;6448;48.916;8.990;2023-09-08T02:09:14;3.65;;;3.35;;
12768;SDS011;6448;48.916;8.990;2023-09-08T02:10:16;3.73;;;3.43;;
12768;SDS011;6448;48.916;8.990;2023-09-08T02:11:20;3.67;;;3.40;;
12768;SDS011;6448;48.916;8.990;2023-09-08T02:12:24;3.97;;;3.67;;
12768;SDS011;6448;48.916;8.990;2023-09-08T02:13:25;3.97;;;3.67;;
12768;SDS011;6448;48.916;8.990;2023-09-08T02:14:27;4.03;;;3.72;;
12768;SDS011;6448;48.916;8.990;2023-09-08T02:15:28;4.07;;;3.77;;
12768;SDS011;6448;48.916;8.990;2023-09-08T02:16:29;3.90;;;3.60;;
12768;SDS011;6448;48.916;8.990;2023-09-08T02:17:30;3.97;;;3.67;;
12768;SDS011;6448;48.916;8.990;2023-09-08T02:18:32;4.00;;;3.70;;
12768;SDS011;6448;48.916;8.990;2023-09-08T02:19:33;3.90;;;3.60;;
12768;SDS011;6448;48.916;8.990;2023-09-08T02:20:34;3.90;;;3.60;;
12768;SDS011;6448;48.916;8.990;2023-09-08T02:21:36;3.97;;;3.67;;
12768;SDS011;6448;48.916;8.990;2023-09-08T02:22:38;3.90;;;3.60;;
12768;SDS011;6448;48.916;8.990;2023-09-08T02:23:38;3.90;;;3.60;;
12768;SDS011;6448;48.916;8.990;2023-09-08T02:24:41;3.78;;;3.47;;
12768;SDS011;6448;48.916;8.990;2023-09-08T02:25:42;4.15;;;3.85;;
12768;SDS011;6448;48.916;8.990;2023-09-08T02:26:43;3.80;;;3.50;;
12768;SDS011;6448;48.916;8.990;2023-09-08T02:27:47;4.22;;;3.92;;
12768;SDS011;6448;48.916;8.990;2023-09-08T02:28:49;4.28;;;3.90;;
12768;SDS011;6448;48.916;8.990;2023-09-08T02:29:52;3.92;;;3.63;;
12768;SDS011;6448;48.916;8.990;2023-09-08T02:30:53;3.92;;;3.63;;
12768;SDS011;6448;48.916;8.990;2023-09-08T02:31:55;4.00;;;3.70;;
12768;SDS011;6448;48.916;8.990;2023-09-08T02:32:56;3.78;;;3.58;;
12768;SDS011;6448;48.916;8.990;2023-09-08T02:33:57;3.80;;;3.50;;
12768;SDS011;6448;48.916;8.990;2023-09-08T02:34:58;4.07;;;3.77;;
12768;SDS011;6448;48.916;8.990;2023-09-08T02:36:01;4.00;;;3.70;;
12768;SDS011;6448;48.916;8.990;2023-09-08T02:37:02;4.00;;;3.70;;
12768;SDS011;6448;48.916;8.990;2023-09-08T02:38:04;3.90;;;3.60;;
12768;SDS011;6448;48.916;8.990;2023-09-08T02:39:06;4.00;;;3.70;;
12768;SDS011;6448;48.916;8.990;2023-09-08T02:40:07;3.90;;;3.60;;
12768;SDS011;6448;48.916;8.990;2023-09-08T02:41:10;4.43;;;4.07;;
12768;SDS011;6448;48.916;8.990;2023-09-08T02:42:11;4.07;;;3.77;;
12768;SDS011;6448;48.916;8.990;2023-09-08T02:43:14;4.10;;;3.80;;
12768;SDS011;6448;48.916;8.990;2023-09-08T02:44:15;3.92;;;3.60;;
12768;SDS011;6448;48.916;8.990;2023-09-08T02:45:18;3.97;;;3.67;;
12768;SDS011;6448;48.916;8.990;2023-09-08T02:46:18;3.80;;;3.50;;
12768;SDS011;6448;48.916;8.990;2023-09-08T02:47:21;4.22;;;3.83;;
12768;SDS011;6448;48.916;8.990;2023-09-08T02:48:22;3.80;;;3.50;;
12768;SDS011;6448;48.916;8.990;2023-09-08T02:49:23;3.60;;;3.40;;
12768;SDS011;6448;48.916;8.990;2023-09-08T02:50:24;3.88;;;3.58;;
12768;SDS011;6448;48.916;8.990;2023-09-08T02:51:26;3.58;;;3.30;;
12768;SDS011;6448;48.916;8.990;2023-09-08T02:52:27;4.20;;;3.58;;
12768;SDS011;6448;48.916;8.990;2023-09-08T02:53:28;3.17;;;2.97;;
12768;SDS011;6448;48.916;8.990;2023-09-08T02:54:29;3.80;;;3.50;;
12768;SDS011;6448;48.916;8.990;2023-09-08T02:55:31;3.60;;;3.30;;
12768;SDS011;6448;48.916;8.990;2023-09-08T02:56:33;3.25;;;3.05;;
12768;SDS011;6448;48.916;8.990;2023-09-08T02:57:34;3.70;;;3.40;;
12768;SDS011;6448;48.916;8.990;2023-09-08T02:58:36;3.58;;;3.30;;
12768;SDS011;6448;48.916;8.990;2023-09-08T02:59:38;3.33;;;3.13;;
12768;SDS011;6448;48.916;8.990;2023-09-08T03:00:38;3.40;;;3.20;;
12768;SDS011;6448;48.916;8.990;2023-09-08T03:01:40;3.70;;;3.40;;
12768;SDS011;6448;48.916;8.990;2023-09-08T03:02:41;3.40;;;3.10;;
12768;SDS011;6448;48.916;8.990;2023-09-08T03:03:42;3.50;;;3.20;;
12768;SDS011;6448;48.916;8.990;2023-09-08T03:04:45;3.60;;;3.30;;
12768;SDS011;6448;48.916;8.990;2023-09-08T03:05:46;3.50;;;3.20;;
12768;SDS011;6448;48.916;8.990;2023-09-08T03:06:48;3.58;;;3.30;;
12768;SDS011;6448;48.916;8.990;2023-09-08T03:07:49;3.45;;;3.20;;
12768;SDS011;6448;48.916;8.990;2023-09-08T03:08:50;3.67;;;3.38;;
12768;SDS011;6448;48.916;8.990;2023-09-08T03:09:51;3.40;;;3.20;;
12768;SDS011;6448;48.916;8.990;2023-09-08T03:10:54;3.42;;;3.13;;
12768;SDS011;6448;48.916;8.990;2023-09-08T03:11:56;3.67;;;3.40;;
12768;SDS011;6448;48.916;8.990;2023-09-08T03:12:58;3.55;;;3.30;;
12768;SDS011;6448;48.916;8.990;2023-09-08T03:14:00;3.60;;;3.30;;
12768;SDS011;6448;48.916;8.990;2023-09-08T03:15:02;3.50;;;3.30;;
12768;SDS011;6448;48.916;8.990;2023-09-08T03:16:04;3.55;;;3.30;;
12768;SDS011;6448;48.916;8.990;2023-09-08T03:17:06;3.30;;;3.10;;
12768;SDS011;6448;48.916;8.990;2023-09-08T03:18:07;3.45;;;3.15;;
12768;SDS011;6448;48.916;8.990;2023-09-08T03:19:09;3.40;;;3.20;;
12768;SDS011;6448;48.916;8.990;2023-09-08T03:20:10;3.22;;;3.00;;
12768;SDS011;6448;48.916;8.990;2023-09-08T03:21:13;3.50;;;3.20;;
12768;SDS011;6448;48.916;8.990;2023-09-08T03:22:14;3.10;;;2.90;;
12768;SDS011;6448;48.916;8.990;2023-09-08T03:23:16;3.40;;;3.10;;
12768;SDS011;6448;48.916;8.990;2023-09-08T03:24:17;3.50;;;3.20;;
12768;SDS011;6448;48.916;8.990;2023-09-08T03:25:19;3.50;;;3.30;;
12768;SDS011;6448;48.916;8.990;2023-09-08T03:26:20;3.50;;;3.30;;
12768;SDS011;6448;48.916;8.990;2023-09-08T03:27:21;3.80;;;3.50;;
12768;SDS011;6448;48.916;8.990;2023-09-08T03:28:22;3.30;;;3.10;;
12768;SDS011;6448;48.916;8.990;2023-09-08T03:29:25;3.20;;;2.90;;
12768;SDS011;6448;48.916;8.990;2023-09-08T03:30:26;3.50;;;3.20;;
12768;SDS011;6448;48.916;8.990;2023-09-08T03:31:27;3.38;;;3.13;;
12768;SDS011;6448;48.916;8.990;2023-09-08T03:32:28;3.70;;;3.40;;
12768;SDS011;6448;48.916;8.990;2023-09-08T03:33:30;3.60;;;3.30;;
12768;SDS011;6448;48.916;8.990;2023-09-08T03:34:31;3.50;;;3.20;;
12768;SDS011;6448;48.916;8.990;2023-09-08T03:35:33;3.40;;;3.20;;
12768;SDS011;6448;48.916;8.990;2023-09-08T03:36:34;3.35;;;3.15;;
12768;SDS011;6448;48.916;8.990;2023-09-08T03:37:36;3.38;;;3.17;;
12768;SDS011;6448;48.916;8.990;2023-09-08T03:38:38;3.30;;;3.00;;
12768;SDS011;6448;48.916;8.990;2023-09-08T03:39:41;3.55;;;3.35;;
12768;SDS011;6448;48.916;8.990;2023-09-08T03:40:42;3.72;;;3.33;;
12768;SDS011;6448;48.916;8.990;2023-09-08T03:41:43;3.97;;;3.63;;
12768;SDS011;6448;48.916;8.990;2023-09-08T03:42:44;3.88;;;3.58;;
12768;SDS011;6448;48.916;8.990;2023-09-08T03:43:45;3.92;;;3.63;;
12768;SDS011;6448;48.916;8.990;2023-09-08T03:44:50;3.75;;;3.45;;
12768;SDS011;6448;48.916;8.990;2023-09-08T03:45:51;3.70;;;3.40;;
12768;SDS011;6448;48.916;8.990;2023-09-08T03:46:53;4.07;;;3.67;;
12768;SDS011;6448;48.916;8.990;2023-09-08T03:47:54;4.00;;;3.70;;
12768;SDS011;6448;48.916;8.990;2023-09-08T03:48:55;3.90;;;3.60;;
12768;SDS011;6448;48.916;8.990;2023-09-08T03:50:00;4.03;;;3.72;;
12768;SDS011;6448;48.916;8.990;2023-09-08T03:51:02;3.80;;;3.57;;
12768;SDS011;6448;48.916;8.990;2023-09-08T03:52:03;3.93;;;3.63;;
12768;SDS011;6448;48.916;8.990;2023-09-08T03:53:05;3.90;;;3.60;;
12768;SDS011;6448;48.916;8.990;2023-09-08T03:54:06;4.10;;;3.80;;
12768;SDS011;6448;48.916;8.990;2023-09-08T03:55:08;4.00;;;3.70;;
12768;SDS011;6448;48.916;8.990;2023-09-08T03:56:09;4.07;;;3.78;;
12768;SDS011;6448;48.916;8.990;2023-09-08T03:57:11;3.83;;;3.53;;
12768;SDS011;6448;48.916;8.990;2023-09-08T03:58:11;4.22;;;3.90;;
12768;SDS011;6448;48.916;8.990;2023-09-08T03:59:13;4.03;;;3.70;;
12768;SDS011;6448;48.916;8.990;2023-09-08T04:00:15;4.82;;;3.78;;
12768;SDS011;6448;48.916;8.990;2023-09-08T04:01:21;4.30;;;4.00;;
12768;SDS011;6448;48.916;8.990;2023-09-08T04:02:22;4.10;;;3.80;;
12768;SDS011;6448;48.916;8.990;2023-09-08T04:03:24;4.03;;;3.72;;
12768;SDS011;6448;48.916;8.990;2023-09-08T04:04:25;3.78;;;3.47;;
12768;SDS011;6448;48.916;8.990;2023-09-08T04:05:27;3.80;;;3.50;;
12768;SDS011;6448;48.916;8.990;2023-09-08T04:06:28;4.10;;;3.80;;
12768;SDS011;6448;48.916;8.990;2023-09-08T04:07:30;3.90;;;3.60;;
12768;SDS011;6448;48.916;8.990;2023-09-08T04:08:31;4.17;;;3.87;;
12768;SDS011;6448;48.916;8.990;2023-09-08T04:09:33;3.90;;;3.60;;
12768;SDS011;6448;48.916;8.990;2023-09-08T04:10:33;3.80;;;3.50;;
12768;SDS011;6448;48.916;8.990;2023-09-08T04:11:35;3.90;;;3.60;;
12768;SDS011;6448;48.916;8.990;2023-09-08T04:12:36;4.20;;;3.80;;
12768;SDS011;6448;48.916;8.990;2023-09-08T04:13:38;3.80;;;3.50;;
12768;SDS011;6448;48.916;8.990;2023-09-08T04:14:39;3.95;;;3.65;;
12768;SDS011;6448;48.916;8.990;2023-09-08T04:15:41;3.77;;;3.47;;
12768;SDS011;6448;48.916;8.990;2023-09-08T04:16:43;3.87;;;3.57;;
12768;SDS011;6448;48.916;8.990;2023-09-08T04:17:43;3.63;;;3.33;;
12768;SDS011;6448;48.916;8.990;2023-09-08T04:18:45;3.70;;;3.40;;
12768;SDS011;6448;48.916;8.990;2023-09-08T04:19:48;3.70;;;3.40;;
12768;SDS011;6448;48.916;8.990;2023-09-08T04:20:48;3.80;;;3.50;;
12768;SDS011;6448;48.916;8.990;2023-09-08T04:21:50;3.57;;;3.27;;
12768;SDS011;6448;48.916;8.990;2023-09-08T04:22:51;3.90;;;3.60;;
12768;SDS011;6448;48.916;8.990;2023-09-08T04:23:53;3.67;;;3.47;;
12768;SDS011;6448;48.916;8.990;2023-09-08T04:24:53;3.70;;;3.40;;
12768;SDS011;6448;48.916;8.990;2023-09-08T04:25:57;3.80;;;3.50;;
12768;SDS011;6448;48.916;8.990;2023-09-08T04:26:58;3.65;;;3.35;;
12768;SDS011;6448;48.916;8.990;2023-09-08T04:27:59;3.50;;;3.20;;
12768;SDS011;6448;48.916;8.990;2023-09-08T04:29:00;3.88;;;3.58;;
12768;SDS011;6448;48.916;8.990;2023-09-08T04:30:03;3.50;;;3.30;;
12768;SDS011;6448;48.916;8.990;2023-09-08T04:31:05;3.50;;;3.30;;
12768;SDS011;6448;48.916;8.990;2023-09-08T04:32:07;3.90;;;3.60;;
12768;SDS011;6448;48.916;8.990;2023-09-08T04:33:08;3.90;;;3.60;;
12768;SDS011;6448;48.916;8.990;2023-09-08T04:34:11;3.80;;;3.50;;
12768;SDS011;6448;48.916;8.990;2023-09-08T04:35:12;4.10;;;3.70;;
12768;SDS011;6448;48.916;8.990;2023-09-08T04:36:13;3.53;;;3.33;;
12768;SDS011;6448;48.916;8.990;2023-09-08T04:37:15;3.67;;;3.40;;
12768;SDS011;6448;48.916;8.990;2023-09-08T04:38:16;3.45;;;3.25;;
12768;SDS011;6448;48.916;8.990;2023-09-08T04:39:18;3.90;;;3.60;;
12768;SDS011;6448;48.916;8.990;2023-09-08T04:40:19;3.90;;;3.60;;
12768;SDS011;6448;48.916;8.990;2023-09-08T04:41:21;4.05;;;3.65;;
12768;SDS011;6448;48.916;8.990;2023-09-08T04:42:22;4.00;;;3.70;;
12768;SDS011;6448;48.916;8.990;2023-09-08T04:43:24;3.47;;;3.28;;
12768;SDS011;6448;48.916;8.990;2023-09-08T04:44:25;3.78;;;3.47;;
12768;SDS011;6448;48.916;8.990;2023-09-08T04:45:28;3.45;;;3.22;;
12768;SDS011;6448;48.916;8.990;2023-09-08T04:46:30;3.80;;;3.50;;
12768;SDS011;6448;48.916;8.990;2023-09-08T04:47:32;3.53;;;3.22;;
12768;SDS011;6448;48.916;8.990;2023-09-08T04:48:33;3.60;;;3.30;;
12768;SDS011;6448;48.916;8.990;2023-09-08T04:49:35;3.70;;;3.40;;
12768;SDS011;6448;48.916;8.990;2023-09-08T04:50:37;3.83;;;3.53;;
12768;SDS011;6448;48.916;8.990;2023-09-08T04:51:38;3.95;;;3.58;;
12768;SDS011;6448;48.916;8.990;2023-09-08T04:52:39;3.60;;;3.40;;
12768;SDS011;6448;48.916;8.990;2023-09-08T04:53:41;3.80;;;3.50;;
12768;SDS011;6448;48.916;8.990;2023-09-08T04:54:42;3.85;;;3.55;;
12768;SDS011;6448;48.916;8.990;2023-09-08T04:55:44;3.95;;;3.65;;
12768;SDS011;6448;48.916;8.990;2023-09-08T04:56:45;3.95;;;3.65;;
12768;SDS011;6448;48.916;8.990;2023-09-08T04:57:47;3.83;;;3.53;;
12768;SDS011;6448;48.916;8.990;2023-09-08T04:58:49;3.90;;;3.60;;
12768;SDS011;6448;48.916;8.990;2023-09-08T04:59:50;4.03;;;3.72;;
12768;SDS011;6448;48.916;8.990;2023-09-08T05:00:54;4.05;;;3.75;;
12768;SDS011;6448;48.916;8.990;2023-09-08T05:01:58;3.75;;;3.45;;
12768;SDS011;6448;48.916;8.990;2023-09-08T05:02:59;3.90;;;3.60;;
12768;SDS011;6448;48.916;8.990;2023-09-08T05:04:01;4.00;;;3.70;;
12768;SDS011;6448;48.916;8.990;2023-09-08T05:05:02;3.63;;;3.33;;
12768;SDS011;6448;48.916;8.990;2023-09-08T05:06:05;4.20;;;3.85;;
12768;SDS011;6448;48.916;8.990;2023-09-08T05:07:06;3.85;;;3.55;;
12768;SDS011;6448;48.916;8.990;2023-09-08T05:08:08;4.10;;;3.80;;
12768;SDS011;6448;48.916;8.990;2023-09-08T05:09:08;4.20;;;3.90;;
12768;SDS011;6448;48.916;8.990;2023-09-08T05:10:10;3.80;;;3.50;;
12768;SDS011;6448;48.916;8.990;2023-09-08T05:11:12;4.13;;;3.83;;
12768;SDS011;6448;48.916;8.990;2023-09-08T05:12:14;3.70;;;3.40;;
12768;SDS011;6448;48.916;8.990;2023-09-08T05:13:16;3.90;;;3.60;;
12768;SDS011;6448;48.916;8.990;2023-09-08T05:14:18;4.00;;;3.70;;
12768;SDS011;6448;48.916;8.990;2023-09-08T05:15:20;3.92;;;3.63;;
12768;SDS011;6448;48.916;8.990;2023-09-08T05:16:25;3.92;;;3.63;;
12768;SDS011;6448;48.916;8.990;2023-09-08T05:17:39;3.72;;;3.42;;
12768;SDS011;6448;48.916;8.990;2023-09-08T05:18:41;3.90;;;3.60;;
12768;SDS011;6448;48.916;8.990;2023-09-08T05:19:41;3.90;;;3.70;;
12768;SDS011;6448;48.916;8.990;2023-09-08T05:20:44;3.60;;;3.40;;
12768;SDS011;6448;48.916;8.990;2023-09-08T05:21:44;3.80;;;3.50;;
12768;SDS011;6448;48.916;8.990;2023-09-08T05:22:46;3.80;;;3.50;;
12768;SDS011;6448;48.916;8.990;2023-09-08T05:23:47;4.00;;;3.70;;
12768;SDS011;6448;48.916;8.990;2023-09-08T05:24:49;3.88;;;3.58;;
12768;SDS011;6448;48.916;8.990;2023-09-08T05:25:51;4.13;;;3.83;;
12768;SDS011;6448;48.916;8.990;2023-09-08T05:26:52;4.00;;;3.70;;
12768;SDS011;6448;48.916;8.990;2023-09-08T05:27:54;4.00;;;3.70;;
12768;SDS011;6448;48.916;8.990;2023-09-08T05:28:55;3.85;;;3.55;;
12768;SDS011;6448;48.916;8.990;2023-09-08T05:29:57;4.35;;;3.95;;
12768;SDS011;6448;48.916;8.990;2023-09-08T05:30:58;3.75;;;3.45;;
12768;SDS011;6448;48.916;8.990;2023-09-08T05:32:00;4.10;;;3.80;;
12768;SDS011;6448;48.916;8.990;2023-09-08T05:33:02;3.90;;;3.60;;
12768;SDS011;6448;48.916;8.990;2023-09-08T05:34:04;4.20;;;3.80;;
12768;SDS011;6448;48.916;8.990;2023-09-08T05:35:05;4.00;;;3.70;;
12768;SDS011;6448;48.916;8.990;2023-09-08T05:36:08;3.58;;;3.38;;
12768;SDS011;6448;48.916;8.990;2023-09-08T05:37:09;3.80;;;3.50;;
12768;SDS011;6448;48.916;8.990;2023-09-08T05:38:11;3.90;;;3.60;;
12768;SDS011;6448;48.916;8.990;2023-09-08T05:39:13;3.90;;;3.60;;
12768;SDS011;6448;48.916;8.990;2023-09-08T05:40:17;3.92;;;3.63;;
12768;SDS011;6448;48.916;8.990;2023-09-08T05:41:19;3.90;;;3.60;;
12768;SDS011;6448;48.916;8.990;2023-09-08T05:42:20;4.00;;;3.70;;
12768;SDS011;6448;48.916;8.990;2023-09-08T05:43:23;3.90;;;3.60;;
12768;SDS011;6448;48.916;8.990;2023-09-08T05:44:25;4.00;;;3.70;;
12768;SDS011;6448;48.916;8.990;2023-09-08T05:45:28;4.10;;;3.80;;
12768;SDS011;6448;48.916;8.990;2023-09-08T05:46:31;4.15;;;3.85;;
12768;SDS011;6448;48.916;8.990;2023-09-08T05:47:33;4.07;;;3.78;;
12768;SDS011;6448;48.916;8.990;2023-09-08T05:48:37;3.80;;;3.50;;
12768;SDS011;6448;48.916;8.990;2023-09-08T05:49:39;4.00;;;3.70;;
12768;SDS011;6448;48.916;8.990;2023-09-08T05:50:40;4.32;;;3.92;;
12768;SDS011;6448;48.916;8.990;2023-09-08T05:51:41;4.10;;;3.80;;
12768;SDS011;6448;48.916;8.990;2023-09-08T05:52:43;4.10;;;3.80;;
12768;SDS011;6448;48.916;8.990;2023-09-08T05:53:44;4.23;;;3.93;;
12768;SDS011;6448;48.916;8.990;2023-09-08T05:54:46;4.30;;;3.97;;
12768;SDS011;6448;48.916;8.990;2023-09-08T05:55:47;4.20;;;3.90;;
12768;SDS011;6448;48.916;8.990;2023-09-08T05:56:48;4.20;;;3.90;;
12768;SDS011;6448;48.916;8.990;2023-09-08T05:57:49;4.23;;;3.93;;
12768;SDS011;6448;48.916;8.990;2023-09-08T05:58:51;4.28;;;3.97;;
12768;SDS011;6448;48.916;8.990;2023-09-08T05:59:52;4.00;;;3.70;;
12768;SDS011;6448;48.916;8.990;2023-09-08T06:00:54;4.20;;;3.80;;
12768;SDS011;6448;48.916;8.990;2023-09-08T06:01:55;4.57;;;4.13;;
12768;SDS011;6448;48.916;8.990;2023-09-08T06:02:57;5.13;;;4.72;;
12768;SDS011;6448;48.916;8.990;2023-09-08T06:03:59;4.60;;;4.30;;
12768;SDS011;6448;48.916;8.990;2023-09-08T06:05:04;4.70;;;4.30;;
12768;SDS011;6448;48.916;8.990;2023-09-08T06:06:09;4.47;;;4.18;;
12768;SDS011;6448;48.916;8.990;2023-09-08T06:07:11;4.22;;;3.92;;
12768;SDS011;6448;48.916;8.990;2023-09-08T06:08:12;4.40;;;4.10;;
12768;SDS011;6448;48.916;8.990;2023-09-08T06:09:15;4.38;;;4.07;;
12768;SDS011;6448;48.916;8.990;2023-09-08T06:10:17;4.35;;;4.05;;
12768;SDS011;6448;48.916;8.990;2023-09-08T06:11:19;4.57;;;4.28;;
12768;SDS011;6448;48.916;8.990;2023-09-08T06:12:20;4.57;;;4.28;;
12768;SDS011;6448;48.916;8.990;2023-09-08T06:13:22;4.60;;;4.30;;
12768;SDS011;6448;48.916;8.990;2023-09-08T06:14:23;4.80;;;4.40;;
12768;SDS011;6448;48.916;8.990;2023-09-08T06:15:25;4.50;;;4.10;;
12768;SDS011;6448;48.916;8.990;2023-09-08T06:16:26;4.80;;;4.40;;
12768;SDS011;6448;48.916;8.990;2023-09-08T06:17:28;4.77;;;4.37;;
12768;SDS011;6448;48.916;8.990;2023-09-08T06:18:29;4.80;;;4.40;;